Yellowstone Regional Airport
KCOD : now visible

Airfield :











YOU CAN JOIN US ON...

 
LOGIN :

Register | Disclaimer

   EN    FR    IT 

 









Legend :    VFR   Marginal VFR   IFR   Intensive IFR   Very Intensive IFR
Visi :
Ceiling :
>= 8 km
>= 3000ft
5 to 8 km
1000 to 3000 ft
1500m to 5 km
500 to 1000 ft
800 to 1500m
200 to 500 ft
< 800m
< 200 ft
Symbols :   Thunderstorms  Fog  Heavy snow  Heavy precipitations  Wind > 20 kt






- Airport Elevation : 5102 ft


KCOD - Yellowstone Regional

CURRENT METAR :
  • 200956Z AUTO 29003KT 9SM -SN OVC025 M07/M11 A3029 RMK AO2 SNB50 SLP308 P0000 T10721106 FZRANO

EXPIRED METARs :
  • 200949Z AUTO 29004KT 10SM FEW014 OVC025 M07/M11 A3029 RMK AO2 FZRANO
  • 200914Z AUTO 00000KT 10SM OVC014 M07/M10 A3029 RMK AO2 FZRANO
  • 200856Z AUTO 25003KT 10SM OVC017 M07/M10 A3030 RMK AO2 SLP311 T10721100 53003 FZRANO
  • 200848Z AUTO 00000KT 10SM BKN019 M08/M11 A3030 RMK AO2 FZRANO
  • 200756Z AUTO 04004KT 10SM CLR M08/M12 A3029 RMK AO2 SLP310 T10781117 FZRANO

TAF KCOD
Valid from the 20 at 06:00 until the 21 at 06:00 UTC


200524Z 2006/2106 34006KT P6SM BKN080
FM201200 35005KT P6SM SCT080
FM201700 36011KT P6SM SCT070
FM210200 35007KT P6SM SCT070
FM210500 24006KT P6SM SKC
KZLC FIR / North America



MET'MAP, your aeronautical weather chart ! - Copyright ORBIFLY December 2007 - Disclaimer

ORBIFLY MET'MAP TEAM :

Programming & Development : Alexandra Zaïnal
Concept & original design : Baudouin d'Aumeries
Assistance for programming : Marc-Olivier Méhu
Technical & hardware support : Manuel Goepfert

Contact : metmap@orbifly.com




SOURCES & CREDITS :

   NOAA       Earth
Advisory